createdAt,value
2019-04-25T00:00:43.189Z,99.90
2019-04-25T00:03:12.294Z,99.90
2019-04-25T00:05:41.150Z,99.90
2019-04-25T00:08:11.145Z,99.90
2019-04-25T00:10:39.511Z,99.90
2019-04-25T00:13:07.865Z,99.90
2019-04-25T00:15:35.627Z,99.90
2019-04-25T00:18:03.415Z,99.90
2019-04-25T00:20:33.183Z,99.90
2019-04-25T00:23:11.754Z,99.90
2019-04-25T00:26:11.389Z,99.90
2019-04-25T00:28:39.403Z,99.90
2019-04-25T00:31:08.738Z,99.90
2019-04-25T00:33:36.493Z,99.90
2019-04-25T00:36:04.202Z,99.90
2019-04-25T00:38:31.952Z,99.90
2019-04-25T00:40:59.686Z,99.90
2019-04-25T00:43:27.428Z,99.90
2019-04-25T00:45:55.182Z,99.90
2019-04-25T00:48:22.952Z,99.90
2019-04-25T00:50:53.466Z,99.90
2019-04-25T00:53:21.225Z,99.90
2019-04-25T00:55:49.016Z,99.90
2019-04-25T00:58:35.191Z,99.90
2019-04-25T01:01:23.211Z,99.90
2019-04-25T01:03:53.233Z,99.90
2019-04-25T01:06:22.050Z,99.90
2019-04-25T01:08:51.596Z,99.90
2019-04-25T01:11:19.453Z,99.90
2019-04-25T01:13:48.243Z,99.90
2019-04-25T01:16:16.095Z,99.90
2019-04-25T01:18:45.308Z,99.90
2019-04-25T01:21:14.111Z,99.90
2019-04-25T01:23:43.353Z,99.90
2019-04-25T01:26:11.249Z,99.90
2019-04-25T01:28:38.984Z,99.90
2019-04-25T01:31:09.045Z,99.90
2019-04-25T01:33:36.803Z,99.90
2019-04-25T01:36:13.420Z,99.90
2019-04-25T01:38:58.894Z,99.90
2019-04-25T01:41:49.403Z,99.90
2019-04-25T01:44:29.929Z,99.90
2019-04-25T01:46:58.181Z,99.90
2019-04-25T01:49:25.977Z,99.90
2019-04-25T01:51:54.433Z,99.90
2019-04-25T01:54:23.840Z,99.90
2019-04-25T01:56:51.843Z,99.90
2019-04-25T01:59:19.560Z,99.90
2019-04-25T02:01:47.394Z,99.90
2019-04-25T02:04:15.110Z,99.90
2019-04-25T02:06:43.419Z,99.90
2019-04-25T02:09:13.734Z,99.90
2019-04-25T02:11:48.443Z,99.90
2019-04-25T02:14:16.184Z,99.90
2019-04-25T02:16:44.048Z,99.90
2019-04-25T02:19:11.840Z,99.90
2019-04-25T02:21:39.589Z,99.90
2019-04-25T02:24:07.352Z,99.90
2019-04-25T02:26:35.127Z,99.90
2019-04-25T02:29:04.695Z,99.90
2019-04-25T02:31:34.833Z,99.90
2019-04-25T02:34:06.183Z,99.90
2019-04-25T02:36:34.454Z,99.90
2019-04-25T02:39:04.585Z,99.90
2019-04-25T02:41:31.272Z,99.90
2019-04-25T02:44:02.990Z,99.90
2019-04-25T02:47:01.910Z,99.90
2019-04-25T02:49:47.668Z,99.90
2019-04-25T02:52:24.783Z,99.90
2019-04-25T02:54:55.694Z,99.90
2019-04-25T02:57:22.145Z,99.90
2019-04-25T02:59:49.867Z,99.90
2019-04-25T03:02:17.723Z,99.90
2019-04-25T03:04:45.464Z,99.90
2019-04-25T03:07:16.646Z,99.90
2019-04-25T03:09:45.017Z,99.90
2019-04-25T03:12:26.958Z,99.90
2019-04-25T03:14:44.415Z,99.90
2019-04-25T03:17:14.019Z,99.90
2019-04-25T03:20:09.526Z,99.90
2019-04-25T03:22:36.280Z,99.90
2019-04-25T03:25:10.016Z,99.90
2019-04-25T03:27:34.521Z,99.90
2019-04-25T03:30:04.443Z,99.90
2019-04-25T03:32:35.286Z,99.90
2019-04-25T03:35:04.425Z,99.90
2019-04-25T03:37:33.058Z,99.90
2019-04-25T03:40:02.714Z,99.90
2019-04-25T03:42:31.033Z,99.90
2019-04-25T03:44:58.844Z,99.90
2019-04-25T03:47:26.615Z,99.90
2019-04-25T03:49:55.423Z,99.90
2019-04-25T03:52:23.911Z,99.90
2019-04-25T03:54:53.362Z,99.90
2019-04-25T03:57:21.261Z,99.90
2019-04-25T03:59:48.991Z,99.90
2019-04-25T04:02:16.735Z,99.90
2019-04-25T04:04:44.484Z,99.90
2019-04-25T04:07:12.763Z,99.90
2019-04-25T04:09:43.473Z,99.90
2019-04-25T04:12:12.260Z,99.90
2019-04-25T04:14:40.212Z,99.90
2019-04-25T04:17:14.704Z,99.90
2019-04-25T04:19:49.807Z,99.90
2019-04-25T04:22:27.034Z,99.90
2019-04-25T04:24:56.487Z,99.90
2019-04-25T04:27:24.232Z,99.90
2019-04-25T04:29:51.978Z,99.90
2019-04-25T04:32:19.846Z,99.90
2019-04-25T04:34:47.578Z,99.90
2019-04-25T04:37:16.129Z,99.90
2019-04-25T04:39:44.106Z,99.90
2019-04-25T04:42:13.718Z,99.90
2019-04-25T04:44:41.762Z,99.90
2019-04-25T04:47:10.025Z,99.90
2019-04-25T04:49:37.846Z,99.90
2019-04-25T04:52:06.525Z,99.90
2019-04-25T04:54:34.602Z,99.90
2019-04-25T04:57:16.133Z,99.90
2019-04-25T04:59:33.699Z,99.90
2019-04-25T05:02:11.482Z,99.90
2019-04-25T05:04:58.752Z,99.90
2019-04-25T05:07:47.322Z,99.90
2019-04-25T05:10:18.360Z,99.90
2019-04-25T05:12:44.731Z,99.90
2019-04-25T05:15:16.258Z,99.90
2019-04-25T05:17:44.007Z,99.90
2019-04-25T05:20:12.851Z,99.90
2019-04-25T05:22:41.218Z,99.90
2019-04-25T05:25:09.675Z,99.90
2019-04-25T05:27:50.749Z,99.90
2019-04-25T05:30:09.203Z,99.90
2019-04-25T05:32:37.031Z,99.90
2019-04-25T05:35:05.283Z,99.90
2019-04-25T05:37:33.540Z,99.90
2019-04-25T05:40:01.479Z,99.90
2019-04-25T05:42:54.882Z,99.90
2019-04-25T05:45:25.750Z,99.90
2019-04-25T05:47:54.103Z,99.90
2019-04-25T05:50:23.883Z,99.90
2019-04-25T05:52:51.662Z,99.90
2019-04-25T05:55:20.214Z,99.90
2019-04-25T05:57:50.243Z,99.20
2019-04-25T06:00:19.035Z,97.10
2019-04-25T06:02:46.939Z,95.70
2019-04-25T06:05:14.824Z,94.20
2019-04-25T06:07:43.251Z,92.50
2019-04-25T06:10:26.740Z,91.10
2019-04-25T06:13:29.173Z,89.50
2019-04-25T06:16:03.521Z,87.20
2019-04-25T06:18:54.887Z,84.40
2019-04-25T06:21:23.606Z,83.00
2019-04-25T06:24:18.288Z,83.20
2019-04-25T06:27:15.362Z,82.70
2019-04-25T06:29:57.339Z,80.60
2019-04-25T06:32:14.595Z,80.00
2019-04-25T06:34:44.207Z,79.30
2019-04-25T06:37:13.760Z,78.40
2019-04-25T06:39:41.843Z,77.80
2019-04-25T06:42:09.586Z,77.40
2019-04-25T06:44:44.081Z,76.80
2019-04-25T06:47:23.094Z,75.80
2019-04-25T06:49:53.238Z,77.00
2019-04-25T06:52:21.619Z,78.40
2019-04-25T06:54:49.428Z,78.30
2019-04-25T06:57:17.150Z,77.30
2019-04-25T06:59:44.950Z,77.40
2019-04-25T07:02:14.017Z,78.10
2019-04-25T07:04:43.495Z,79.20
2019-04-25T07:07:13.109Z,77.10
2019-04-25T07:09:41.394Z,75.70
2019-04-25T07:12:09.242Z,73.10
2019-04-25T07:17:04.987Z,69.00
2019-04-25T07:19:34.301Z,68.40
2019-04-25T07:22:03.906Z,65.60
2019-04-25T07:24:31.783Z,62.00
2019-04-25T07:27:18.964Z,59.00
2019-04-25T07:29:58.567Z,56.50
2019-04-25T07:32:34.833Z,53.00
2019-04-25T07:35:05.315Z,51.10
2019-04-25T07:37:34.905Z,49.40
2019-04-25T07:40:04.643Z,48.30
2019-04-25T07:42:53.570Z,47.00
2019-04-25T07:45:27.008Z,45.30
2019-04-25T07:48:07.576Z,43.50
2019-04-25T07:50:47.227Z,42.40
2019-04-25T07:53:15.256Z,41.50
2019-04-25T07:55:43.380Z,40.10
2019-04-25T07:58:11.353Z,40.70
2019-04-25T08:00:39.263Z,40.10
2019-04-25T08:03:23.755Z,39.80
2019-04-25T08:06:03.081Z,38.60
2019-04-25T08:08:32.195Z,38.90
2019-04-25T08:11:07.576Z,40.00
2019-04-25T08:13:49.602Z,39.40
2019-04-25T08:16:23.317Z,39.60
2019-04-25T08:18:51.648Z,39.00
2019-04-25T08:21:23.872Z,39.20
2019-04-25T08:23:57.858Z,39.80
2019-04-25T08:26:26.195Z,38.60
2019-04-25T08:28:57.454Z,36.70
2019-04-25T08:31:23.972Z,35.30
2019-04-25T08:33:53.468Z,35.20
2019-04-25T08:36:23.272Z,35.00
2019-04-25T08:38:51.212Z,34.90
2019-04-25T08:41:21.505Z,34.30
2019-04-25T08:43:48.776Z,33.60
2019-04-25T08:46:16.759Z,33.20
2019-04-25T08:49:19.280Z,32.90
2019-04-25T08:51:47.257Z,31.90
2019-04-25T08:54:39.679Z,31.10
2019-04-25T08:57:08.536Z,31.00
2019-04-25T08:59:52.877Z,31.40
2019-04-25T09:02:49.544Z,30.10
2019-04-25T09:05:45.956Z,29.50
2019-04-25T09:08:14.188Z,29.20
2019-04-25T09:10:43.709Z,28.70
2019-04-25T09:13:13.440Z,28.20
2019-04-25T09:15:41.374Z,27.60
2019-04-25T09:18:09.143Z,28.30
2019-04-25T09:20:39.599Z,28.40
2019-04-25T09:23:06.729Z,28.00
2019-04-25T09:25:35.875Z,27.70
2019-04-25T09:28:04.538Z,27.50
2019-04-25T09:30:33.978Z,27.40
2019-04-25T09:33:03.055Z,28.70
2019-04-25T09:35:33.489Z,28.30
2019-04-25T09:38:02.967Z,27.40
2019-04-25T09:40:31.175Z,26.40
2019-04-25T09:42:59.045Z,26.90
2019-04-25T09:45:49.770Z,27.30
2019-04-25T09:48:40.286Z,27.60
2019-04-25T09:51:39.776Z,27.90
2019-04-25T09:54:33.499Z,27.30
2019-04-25T09:57:33.597Z,27.50
2019-04-25T10:00:03.523Z,27.60
2019-04-25T10:02:31.268Z,28.40
2019-04-25T10:04:59.214Z,28.00
2019-04-25T10:07:27.022Z,27.10
2019-04-25T10:09:54.843Z,27.70
2019-04-25T10:12:23.143Z,27.70
2019-04-25T10:15:46.069Z,27.70
2019-04-25T10:18:14.368Z,27.10
2019-04-25T10:20:43.482Z,26.40
2019-04-25T10:23:13.623Z,26.10
2019-04-25T10:25:43.848Z,25.60
2019-04-25T10:28:13.207Z,25.20
2019-04-25T10:30:41.153Z,25.50
2019-04-25T10:33:08.998Z,25.10
2019-04-25T10:35:47.952Z,24.80
2019-04-25T10:38:14.724Z,24.10
2019-04-25T10:40:46.125Z,24.20
2019-04-25T10:43:14.885Z,24.80
2019-04-25T10:45:46.382Z,24.70
2019-04-25T10:48:15.032Z,24.50
2019-04-25T10:50:43.895Z,25.40
2019-04-25T10:53:12.562Z,25.60
2019-04-25T10:55:41.372Z,25.20
2019-04-25T10:58:09.317Z,25.50
2019-04-25T11:00:40.750Z,25.60
2019-04-25T11:03:26.847Z,25.40
2019-04-25T11:05:55.901Z,25.60
2019-04-25T11:08:24.519Z,25.20
2019-04-25T11:10:53.819Z,25.00
2019-04-25T11:13:22.875Z,24.70
2019-04-25T11:15:50.675Z,24.20
2019-04-25T11:18:18.553Z,23.90
2019-04-25T11:20:46.505Z,23.90
2019-04-25T11:23:14.603Z,23.80
2019-04-25T11:25:43.538Z,23.90
2019-04-25T11:28:14.350Z,23.90
2019-04-25T11:30:46.672Z,23.90
2019-04-25T11:33:15.340Z,23.90
2019-04-25T11:35:43.942Z,23.90
2019-04-25T11:38:16.031Z,23.90
2019-04-25T11:40:55.151Z,24.40
2019-04-25T11:43:22.980Z,24.60
2019-04-25T11:45:50.952Z,24.70
2019-04-25T11:48:20.486Z,25.40
2019-04-25T11:50:52.279Z,25.60
2019-04-25T11:53:20.340Z,25.40
2019-04-25T11:55:49.952Z,25.90
2019-04-25T11:58:18.410Z,25.50
2019-04-25T12:00:47.111Z,24.90
2019-04-25T12:03:15.375Z,24.90
2019-04-25T12:05:45.851Z,24.40
2019-04-25T12:08:13.526Z,24.40
2019-04-25T12:10:41.476Z,24.60
2019-04-25T12:13:09.369Z,24.80
2019-04-25T12:15:38.744Z,24.70
2019-04-25T12:18:06.568Z,24.50
2019-04-25T12:20:34.483Z,24.20
2019-04-25T12:23:08.422Z,23.60
2019-04-25T12:25:32.018Z,23.50
2019-04-25T12:28:02.433Z,23.40
2019-04-25T12:30:38.158Z,23.60
2019-04-25T12:33:00.968Z,24.10
2019-04-25T12:35:28.765Z,23.90
2019-04-25T12:37:56.637Z,24.00
2019-04-25T12:40:24.398Z,24.00
2019-04-25T12:42:52.285Z,24.30
2019-04-25T12:45:30.179Z,24.30
2019-04-25T12:47:59.377Z,24.60
2019-04-25T12:50:27.251Z,24.70
2019-04-25T12:52:58.132Z,24.30
2019-04-25T12:55:26.063Z,24.50
2019-04-25T12:57:55.510Z,24.20
2019-04-25T13:00:25.551Z,24.50
2019-04-25T13:02:56.633Z,25.40
2019-04-25T13:05:24.595Z,25.60
2019-04-25T13:07:55.959Z,25.90
2019-04-25T13:10:23.657Z,26.20
2019-04-25T13:12:51.597Z,26.20
2019-04-25T13:15:19.684Z,26.30
2019-04-25T13:17:47.497Z,26.00
2019-04-25T13:20:15.673Z,26.10
2019-04-25T13:22:43.477Z,26.20
2019-04-25T13:25:14.360Z,26.50
2019-04-25T13:28:00.050Z,26.60
2019-04-25T13:30:59.931Z,27.00
2019-04-25T13:33:43.322Z,27.30
2019-04-25T13:36:13.074Z,27.30
2019-04-25T13:38:40.888Z,27.10
2019-04-25T13:41:08.894Z,27.30
2019-04-25T13:43:36.890Z,27.80
2019-04-25T13:46:04.736Z,27.70
2019-04-25T13:48:34.373Z,28.00
2019-04-25T13:51:04.018Z,29.40
2019-04-25T13:53:33.453Z,29.90
2019-04-25T13:56:01.360Z,29.50
2019-04-25T13:58:30.792Z,29.30
2019-04-25T14:01:12.076Z,29.00
2019-04-25T14:03:30.384Z,29.10
2019-04-25T14:05:58.302Z,29.70
2019-04-25T14:08:26.981Z,29.70
2019-04-25T14:10:54.858Z,30.00
2019-04-25T14:13:25.106Z,30.80
2019-04-25T14:16:03.584Z,31.40
2019-04-25T14:18:57.021Z,32.30
2019-04-25T14:21:26.053Z,33.50
2019-04-25T14:23:54.242Z,35.10
2019-04-25T14:26:22.987Z,35.80
2019-04-25T14:28:50.880Z,36.70
2019-04-25T14:31:35.433Z,37.20
2019-04-25T14:33:51.696Z,38.00
2019-04-25T14:36:19.527Z,38.20
2019-04-25T14:38:47.351Z,38.20
2019-04-25T14:41:15.255Z,38.30
2019-04-25T14:43:43.141Z,38.50
2019-04-25T14:46:11.153Z,38.80
2019-04-25T14:48:38.939Z,39.10
2019-04-25T14:51:06.841Z,39.10
2019-04-25T14:53:35.179Z,39.60
2019-04-25T14:56:23.677Z,39.80
2019-04-25T14:58:51.675Z,39.60
2019-04-25T15:01:22.697Z,39.70
2019-04-25T15:03:51.141Z,39.70
2019-04-25T15:06:19.072Z,40.10
2019-04-25T15:08:46.927Z,39.90
2019-04-25T15:11:14.757Z,39.90
2019-04-25T15:13:42.666Z,40.30
2019-04-25T15:16:10.443Z,40.00
2019-04-25T15:18:46.513Z,39.80
2019-04-25T15:21:08.197Z,40.30
2019-04-25T15:23:36.068Z,40.30
2019-04-25T15:26:04.081Z,40.70
2019-04-25T15:28:39.320Z,40.10
2019-04-25T15:31:07.304Z,39.40
2019-04-25T15:33:35.337Z,39.00
2019-04-25T15:36:37.799Z,39.40
2019-04-25T15:39:43.922Z,39.80
2019-04-25T15:42:34.125Z,39.70
2019-04-25T15:45:19.864Z,39.90
2019-04-25T15:47:47.810Z,39.80
2019-04-25T15:50:15.864Z,40.00
2019-04-25T15:52:44.965Z,40.20
2019-04-25T15:55:13.071Z,40.30
2019-04-25T15:57:40.890Z,40.30
2019-04-25T16:00:15.205Z,40.00
2019-04-25T16:02:43.738Z,40.20
2019-04-25T16:05:11.694Z,40.00
2019-04-25T16:07:40.548Z,40.30
2019-04-25T16:10:10.009Z,40.50
2019-04-25T16:12:37.885Z,40.80
2019-04-25T16:15:06.179Z,41.30
2019-04-25T16:17:34.844Z,41.70
2019-04-25T16:20:03.579Z,42.20
2019-04-25T16:22:32.194Z,42.30
2019-04-25T16:25:00.134Z,42.30
2019-04-25T16:27:28.872Z,42.40
2019-04-25T16:29:56.851Z,42.60
2019-04-25T16:32:26.691Z,43.00
2019-04-25T16:34:55.393Z,43.00
2019-04-25T16:37:23.519Z,43.20
2019-04-25T16:39:51.595Z,43.20
2019-04-25T16:45:31.222Z,43.70
2019-04-25T16:47:58.287Z,44.20
2019-04-25T16:50:34.783Z,44.50
2019-04-25T16:53:04.523Z,44.70
2019-04-25T16:55:35.510Z,44.80
2019-04-25T16:58:05.522Z,45.00
2019-04-25T17:00:57.099Z,45.20
2019-04-25T17:03:26.028Z,45.20
2019-04-25T17:05:54.043Z,45.80
2019-04-25T17:08:22.092Z,45.20
2019-04-25T17:10:50.107Z,45.50
2019-04-25T17:13:18.327Z,45.80
2019-04-25T17:16:01.985Z,46.00
2019-04-25T17:18:34.956Z,46.40
2019-04-25T17:21:07.716Z,46.90
2019-04-25T17:23:35.682Z,47.20
2019-04-25T17:26:04.219Z,47.50
2019-04-25T17:28:34.964Z,47.50
2019-04-25T17:31:24.846Z,47.70
2019-04-25T17:34:18.315Z,47.70
2019-04-25T17:36:52.786Z,47.60
2019-04-25T17:39:33.935Z,47.60
2019-04-25T17:53:22.731Z,47.90
2019-04-25T18:12:13.408Z,49.20
2019-04-25T18:23:44.505Z,50.00
2019-04-25T18:30:49.713Z,50.40
2019-04-25T18:33:30.263Z,50.50
2019-04-25T18:36:31.671Z,50.60
2019-04-25T18:39:53.567Z,50.50
2019-04-25T18:43:01.251Z,50.70
2019-04-25T18:46:01.764Z,51.00
2019-04-25T18:48:29.583Z,51.20
2019-04-25T18:51:04.799Z,51.50
2019-04-25T18:53:59.654Z,52.40
2019-04-25T18:56:45.669Z,51.90
2019-04-25T18:59:46.416Z,52.20
2019-04-25T19:02:42.559Z,52.50
2019-04-25T19:06:16.479Z,52.70
2019-04-25T19:08:54.478Z,52.90
2019-04-25T19:11:47.156Z,53.20
2019-04-25T19:15:14.806Z,53.50
2019-04-25T19:17:41.271Z,53.70
2019-04-25T19:20:31.778Z,54.00
2019-04-25T19:22:48.332Z,54.00
2019-04-25T19:25:16.187Z,54.20
2019-04-25T19:27:44.150Z,55.00
2019-04-25T19:30:14.565Z,54.50
2019-04-25T19:32:42.991Z,54.50
2019-04-25T19:35:10.854Z,54.80
2019-04-25T19:37:39.485Z,54.90
2019-04-25T19:40:36.893Z,55.00
2019-04-25T19:43:27.012Z,55.00
2019-04-25T19:45:54.790Z,55.10
2019-04-25T19:48:22.568Z,55.30
2019-04-25T19:50:50.642Z,55.40
2019-04-25T19:53:18.493Z,55.50
2019-04-25T19:55:46.269Z,55.60
2019-04-25T19:58:14.083Z,55.70
2019-04-25T20:00:43.257Z,55.80
2019-04-25T20:03:19.868Z,56.00
2019-04-25T20:05:56.048Z,56.10
2019-04-25T20:08:33.465Z,56.30
2019-04-25T20:11:06.306Z,56.50
2019-04-25T20:13:34.107Z,56.70
2019-04-25T20:16:01.880Z,56.80
2019-04-25T20:18:29.713Z,56.90
2019-04-25T20:20:57.470Z,57.10
2019-04-25T20:23:25.263Z,57.20
2019-04-25T20:28:22.767Z,56.90
2019-04-25T20:30:50.532Z,57.80
2019-04-25T20:33:18.286Z,58.10
2019-04-25T20:35:47.443Z,58.30
2019-04-25T20:38:15.373Z,58.60
2019-04-25T20:40:43.191Z,58.70
2019-04-25T20:43:10.949Z,58.90
2019-04-25T20:45:40.178Z,59.00
2019-04-25T20:48:07.980Z,59.10
2019-04-25T20:50:35.755Z,59.40
2019-04-25T20:53:03.591Z,59.40
2019-04-25T20:55:31.387Z,59.50
2019-04-25T20:57:59.185Z,59.70
2019-04-25T21:00:43.016Z,60.00
2019-04-25T21:03:10.854Z,60.40
2019-04-25T21:05:39.094Z,60.70
2019-04-25T21:08:06.887Z,61.20
2019-04-25T21:10:34.659Z,61.60
2019-04-25T21:13:04.807Z,62.10
2019-04-25T21:15:56.219Z,62.10
2019-04-25T21:18:30.620Z,62.30
2019-04-25T21:20:59.212Z,62.40
2019-04-25T21:23:27.109Z,62.60
2019-04-25T21:25:54.922Z,62.60
2019-04-25T21:28:22.706Z,62.60
2019-04-25T21:30:51.358Z,62.40
2019-04-25T21:33:19.183Z,62.30
2019-04-25T21:35:47.195Z,62.50
2019-04-25T21:38:15.471Z,63.40
2019-04-25T21:41:05.687Z,62.60
2019-04-25T21:43:37.808Z,62.70
2019-04-25T21:46:05.880Z,62.70
2019-04-25T21:48:33.914Z,62.80
2019-04-25T21:51:21.614Z,63.60
2019-04-25T21:53:49.364Z,63.10
2019-04-25T21:56:17.309Z,63.30
2019-04-25T21:58:45.050Z,63.40
2019-04-25T22:01:17.034Z,63.70
2019-04-25T22:03:44.889Z,63.80
2019-04-25T22:06:12.982Z,64.30
2019-04-25T22:08:40.729Z,64.60
2019-04-25T22:11:08.514Z,64.70
2019-04-25T22:13:36.576Z,64.80
2019-04-25T22:16:04.615Z,64.90
2019-04-25T22:18:32.978Z,65.20
2019-04-25T22:21:02.358Z,65.30
2019-04-25T22:23:30.283Z,65.60
2019-04-25T22:25:58.853Z,65.70
2019-04-25T22:28:27.002Z,66.00
2019-04-25T22:30:57.824Z,65.90
2019-04-25T22:33:37.707Z,66.10
2019-04-25T22:36:11.991Z,66.00
2019-04-25T22:38:39.751Z,66.00
2019-04-25T22:41:07.519Z,66.00
2019-04-25T22:43:37.449Z,66.10
2019-04-25T22:46:05.980Z,66.10
2019-04-25T22:48:48.918Z,66.20
2019-04-25T22:51:16.749Z,66.30
2019-04-25T22:53:45.215Z,67.20
2019-04-25T22:56:12.926Z,66.70
2019-04-25T22:58:40.796Z,66.70
2019-04-25T23:01:18.937Z,67.00
2019-04-25T23:03:48.701Z,67.20
2019-04-25T23:06:16.663Z,67.60
2019-04-25T23:08:44.471Z,68.30
2019-04-25T23:11:12.502Z,68.70
2019-04-25T23:13:40.563Z,69.10
2019-04-25T23:16:08.994Z,69.60
2019-04-25T23:18:36.789Z,70.00
2019-04-25T23:21:05.700Z,70.20
2019-04-25T23:23:34.213Z,70.90
2019-04-25T23:26:12.562Z,71.20
2019-04-25T23:28:41.322Z,71.50
2019-04-25T23:31:16.076Z,71.90
2019-04-25T23:33:44.153Z,72.30
2019-04-25T23:36:13.164Z,72.70
2019-04-25T23:38:41.063Z,73.00
2019-04-25T23:41:09.381Z,73.20
2019-04-25T23:43:37.200Z,73.50
2019-04-25T23:46:05.698Z,74.00
2019-04-25T23:48:33.800Z,74.40
2019-04-25T23:51:01.659Z,74.90
2019-04-25T23:53:29.449Z,75.20
2019-04-25T23:55:57.211Z,75.60
2019-04-25T23:58:24.930Z,75.80
